createdAt,value
2022-09-27T00:00:03.735Z,959.53
2022-09-27T00:01:03.787Z,959.64
2022-09-27T00:02:03.842Z,959.61
2022-09-27T00:03:03.814Z,959.47
2022-09-27T00:04:03.766Z,959.47
2022-09-27T00:05:03.681Z,959.53
2022-09-27T00:06:03.779Z,959.41
2022-09-27T00:07:03.669Z,959.50
2022-09-27T00:08:03.717Z,959.53
2022-09-27T00:09:03.741Z,959.45
2022-09-27T00:10:03.912Z,959.42
2022-09-27T00:11:03.809Z,959.42
2022-09-27T00:12:03.928Z,959.33
2022-09-27T00:13:03.858Z,959.42
2022-09-27T00:14:02.873Z,959.28
2022-09-27T00:15:03.940Z,959.31
2022-09-27T00:16:03.039Z,959.22
2022-09-27T00:17:02.929Z,959.31
2022-09-27T00:18:03.074Z,959.28
2022-09-27T00:19:02.977Z,959.23
2022-09-27T00:20:03.090Z,959.29
2022-09-27T00:21:03.090Z,959.15
2022-09-27T00:22:03.089Z,959.20
2022-09-27T00:23:03.090Z,959.04
2022-09-27T00:24:03.107Z,959.13
2022-09-27T00:25:03.129Z,959.10
2022-09-27T00:26:03.171Z,959.07
2022-09-27T00:27:03.143Z,959.01
2022-09-27T00:28:03.151Z,959.04
2022-09-27T00:29:03.145Z,959.07
2022-09-27T00:30:03.195Z,959.02
2022-09-27T00:31:03.446Z,959.02
2022-09-27T00:32:03.415Z,958.99
2022-09-27T00:33:03.509Z,959.07
2022-09-27T00:34:03.463Z,958.96
2022-09-27T00:35:03.391Z,958.96
2022-09-27T00:36:03.032Z,958.91
2022-09-27T00:37:03.014Z,958.85
2022-09-27T00:38:02.981Z,958.79
2022-09-27T00:39:03.111Z,958.76
2022-09-27T00:40:03.186Z,958.88
2022-09-27T00:41:03.387Z,958.71
2022-09-27T00:42:03.323Z,958.79
2022-09-27T00:43:03.309Z,958.68
2022-09-27T00:44:03.325Z,958.79
2022-09-27T00:45:03.414Z,958.59
2022-09-27T00:46:03.767Z,958.77
2022-09-27T00:47:03.497Z,958.71
2022-09-27T00:48:03.503Z,958.65
2022-09-27T00:49:03.443Z,958.65
2022-09-27T00:50:03.536Z,958.65
2022-09-27T00:51:03.492Z,958.85
2022-09-27T00:52:03.550Z,958.65
2022-09-27T00:53:03.595Z,958.65
2022-09-27T00:54:03.551Z,958.57
2022-09-27T00:55:03.572Z,958.54
2022-09-27T00:56:03.574Z,958.49
2022-09-27T00:57:03.598Z,958.52
2022-09-27T00:58:03.639Z,958.54
2022-09-27T00:59:03.753Z,958.46
2022-09-27T01:00:03.683Z,958.35
2022-09-27T01:01:03.783Z,958.46
2022-09-27T01:02:03.930Z,958.49
2022-09-27T01:03:03.894Z,958.40
2022-09-27T01:04:03.932Z,958.46
2022-09-27T01:05:02.911Z,958.38
2022-09-27T01:06:02.909Z,958.46
2022-09-27T01:07:03.044Z,958.49
2022-09-27T01:08:02.998Z,958.26
2022-09-27T01:09:02.973Z,958.41
2022-09-27T01:10:03.019Z,958.43
2022-09-27T01:11:02.970Z,958.26
2022-09-27T01:12:03.003Z,958.24
2022-09-27T01:13:03.044Z,958.18
2022-09-27T01:14:03.041Z,958.18
2022-09-27T01:15:03.049Z,958.24
2022-09-27T01:16:03.375Z,958.19
2022-09-27T01:17:03.224Z,958.27
2022-09-27T01:18:03.204Z,958.24
2022-09-27T01:19:03.344Z,958.27
2022-09-27T01:20:03.318Z,958.10
2022-09-27T01:21:03.306Z,958.07
2022-09-27T01:22:03.250Z,958.19
2022-09-27T01:23:03.246Z,958.38
2022-09-27T01:24:03.340Z,958.21
2022-09-27T01:25:03.301Z,958.16
2022-09-27T01:26:03.409Z,958.21
2022-09-27T01:27:03.384Z,958.30
2022-09-27T01:28:03.482Z,958.15
2022-09-27T01:29:03.405Z,957.99
2022-09-27T01:30:03.459Z,958.21
2022-09-27T01:31:03.683Z,958.18
2022-09-27T01:32:03.471Z,958.18
2022-09-27T01:33:03.466Z,958.07
2022-09-27T01:34:03.401Z,958.01
2022-09-27T01:35:03.412Z,958.10
2022-09-27T01:36:03.482Z,958.15
2022-09-27T01:37:03.445Z,957.98
2022-09-27T01:38:03.419Z,958.15
2022-09-27T01:39:03.312Z,958.04
2022-09-27T01:40:03.360Z,958.01
2022-09-27T01:41:03.589Z,957.95
2022-09-27T01:42:03.421Z,957.95
2022-09-27T01:43:03.530Z,957.98
2022-09-27T01:44:03.505Z,957.89
2022-09-27T01:45:03.512Z,957.95
2022-09-27T01:46:03.611Z,957.98
2022-09-27T01:47:03.540Z,957.89
2022-09-27T01:48:03.659Z,958.01
2022-09-27T01:49:03.659Z,957.95
2022-09-27T01:50:03.618Z,957.90
2022-09-27T01:51:03.557Z,958.04
2022-09-27T01:52:03.686Z,957.95
2022-09-27T01:53:03.700Z,957.92
2022-09-27T01:54:03.655Z,957.98
2022-09-27T01:55:03.716Z,957.84
2022-09-27T01:56:03.838Z,957.84
2022-09-27T01:57:03.864Z,957.84
2022-09-27T01:58:03.891Z,958.01
2022-09-27T01:59:03.851Z,957.90
2022-09-27T02:00:03.020Z,957.89
2022-09-27T02:01:03.059Z,957.84
2022-09-27T02:02:02.950Z,957.81
2022-09-27T02:03:03.264Z,957.87
2022-09-27T02:04:03.110Z,957.81
2022-09-27T02:05:03.072Z,957.71
2022-09-27T02:06:03.150Z,957.71
2022-09-27T02:07:03.219Z,957.71
2022-09-27T02:08:03.101Z,957.71
2022-09-27T02:09:03.250Z,957.71
2022-09-27T02:10:03.221Z,957.63
2022-09-27T02:11:03.248Z,957.71
2022-09-27T02:12:03.302Z,957.60
2022-09-27T02:13:03.243Z,957.72
2022-09-27T02:14:03.306Z,957.72
2022-09-27T02:15:03.235Z,957.57
2022-09-27T02:16:03.554Z,957.57
2022-09-27T02:17:03.463Z,957.55
2022-09-27T02:18:03.483Z,957.54
2022-09-27T02:19:03.442Z,957.55
2022-09-27T02:20:03.495Z,957.40
2022-09-27T02:21:03.605Z,957.63
2022-09-27T02:23:03.715Z,957.38
2022-09-27T02:24:03.791Z,957.46
2022-09-27T02:25:03.766Z,957.46
2022-09-27T02:26:03.732Z,957.52
2022-09-27T02:27:03.741Z,957.38
2022-09-27T02:28:03.724Z,957.52
2022-09-27T02:29:03.865Z,957.43
2022-09-27T02:30:03.826Z,957.38
2022-09-27T02:31:04.000Z,957.58
2022-09-27T02:32:03.858Z,957.46
2022-09-27T02:33:02.992Z,957.38
2022-09-27T02:34:03.039Z,957.30
2022-09-27T02:35:03.121Z,957.38
2022-09-27T02:36:03.237Z,957.27
2022-09-27T02:37:03.230Z,957.41
2022-09-27T02:38:03.205Z,957.24
2022-09-27T02:39:03.171Z,957.36
2022-09-27T02:40:03.237Z,957.36
2022-09-27T02:41:03.547Z,957.39
2022-09-27T02:42:03.297Z,957.42
2022-09-27T02:43:03.264Z,957.22
2022-09-27T02:44:03.384Z,957.24
2022-09-27T02:45:03.334Z,957.39
2022-09-27T02:46:03.623Z,957.22
2022-09-27T02:47:03.593Z,957.30
2022-09-27T02:48:03.566Z,957.19
2022-09-27T02:49:03.541Z,957.25
2022-09-27T02:50:03.720Z,957.28
2022-09-27T02:51:03.725Z,957.36
2022-09-27T02:52:03.833Z,957.39
2022-09-27T02:53:02.954Z,957.37
2022-09-27T02:54:02.935Z,957.37
2022-09-27T02:55:03.630Z,957.37
2022-09-27T02:56:03.631Z,957.39
2022-09-27T02:57:03.766Z,957.37
2022-09-27T02:58:03.740Z,957.37
2022-09-27T02:59:03.722Z,957.20
2022-09-27T03:00:03.745Z,957.45
2022-09-27T03:01:04.023Z,957.42
2022-09-27T03:02:03.930Z,957.37
2022-09-27T03:03:03.407Z,957.51
2022-09-27T03:04:04.118Z,957.37
2022-09-27T03:05:03.186Z,957.28
2022-09-27T03:06:03.335Z,957.31
2022-09-27T03:07:03.371Z,957.40
2022-09-27T03:08:03.566Z,957.40
2022-09-27T03:09:03.496Z,957.23
2022-09-27T03:10:03.492Z,957.26
2022-09-27T03:11:03.545Z,957.40
2022-09-27T03:12:03.579Z,957.26
2022-09-27T03:13:03.773Z,957.29
2022-09-27T03:14:09.610Z,957.40
2022-09-27T03:15:03.715Z,957.23
2022-09-27T03:16:03.687Z,957.17
2022-09-27T03:17:03.920Z,957.10
2022-09-27T03:18:03.806Z,957.26
2022-09-27T03:19:03.901Z,957.23
2022-09-27T03:20:02.967Z,957.31
2022-09-27T03:21:02.915Z,957.20
2022-09-27T03:22:02.917Z,957.23
2022-09-27T03:23:03.556Z,957.14
2022-09-27T03:24:03.533Z,957.31
2022-09-27T03:25:03.564Z,957.20
2022-09-27T03:26:03.530Z,957.09
2022-09-27T03:27:03.577Z,957.20
2022-09-27T03:28:03.658Z,957.20
2022-09-27T03:29:03.649Z,957.09
2022-09-27T03:30:03.721Z,957.20
2022-09-27T03:31:03.824Z,957.14
2022-09-27T03:32:03.626Z,957.09
2022-09-27T03:33:03.612Z,957.03
2022-09-27T03:34:03.596Z,957.28
2022-09-27T03:35:03.576Z,957.00
2022-09-27T03:36:04.617Z,957.09
2022-09-27T03:37:03.648Z,957.06
2022-09-27T03:38:03.714Z,957.06
2022-09-27T03:39:03.731Z,957.03
2022-09-27T03:40:03.740Z,957.00
2022-09-27T03:41:03.949Z,957.08
2022-09-27T03:42:03.772Z,957.06
2022-09-27T03:43:03.768Z,956.97
2022-09-27T03:44:03.846Z,957.00
2022-09-27T03:45:03.798Z,956.97
2022-09-27T03:46:04.084Z,957.00
2022-09-27T03:47:03.845Z,956.94
2022-09-27T03:48:03.654Z,957.08
2022-09-27T03:49:03.646Z,957.06
2022-09-27T03:50:03.668Z,956.94
2022-09-27T03:51:03.639Z,956.94
2022-09-27T03:52:03.730Z,956.80
2022-09-27T03:53:03.739Z,956.88
2022-09-27T03:54:03.684Z,956.97
2022-09-27T03:55:03.665Z,956.94
2022-09-27T03:56:03.067Z,956.83
2022-09-27T03:57:03.128Z,956.82
2022-09-27T03:58:03.106Z,956.97
2022-09-27T03:59:03.057Z,956.86
2022-09-27T04:00:03.127Z,956.71
2022-09-27T04:01:03.866Z,956.83
2022-09-27T04:02:03.933Z,956.88
2022-09-27T04:03:03.873Z,956.88
2022-09-27T04:04:08.892Z,957.00
2022-09-27T04:05:02.921Z,956.86
2022-09-27T04:06:03.063Z,956.83
2022-09-27T04:07:03.141Z,956.88
2022-09-27T04:08:03.392Z,956.77
2022-09-27T04:09:03.133Z,956.94
2022-09-27T04:10:03.115Z,956.71
2022-09-27T04:11:03.233Z,956.80
2022-09-27T04:12:03.326Z,956.71
2022-09-27T04:13:03.039Z,956.77
2022-09-27T04:14:03.515Z,956.77
2022-09-27T04:15:03.579Z,956.77
2022-09-27T04:16:03.590Z,956.83
2022-09-27T04:17:03.781Z,956.65
2022-09-27T04:18:03.622Z,956.68
2022-09-27T04:19:03.631Z,956.60
2022-09-27T04:20:03.561Z,956.74
2022-09-27T04:21:03.602Z,956.85
2022-09-27T04:22:03.732Z,956.85
2022-09-27T04:23:03.847Z,956.85
2022-09-27T04:24:03.748Z,956.77
2022-09-27T04:25:04.142Z,956.62
2022-09-27T04:26:03.165Z,956.65
2022-09-27T04:27:03.250Z,956.79
2022-09-27T04:28:03.207Z,956.85
2022-09-27T04:29:03.314Z,956.94
2022-09-27T04:30:03.283Z,956.94
2022-09-27T04:31:03.375Z,956.82
2022-09-27T04:32:03.284Z,956.99
2022-09-27T04:33:03.167Z,956.99
2022-09-27T04:34:03.193Z,956.96
2022-09-27T04:35:03.439Z,956.97
2022-09-27T04:36:03.459Z,956.85
2022-09-27T04:37:03.516Z,956.96
2022-09-27T04:38:03.547Z,956.94
2022-09-27T04:39:03.618Z,956.96
2022-09-27T04:40:03.549Z,956.94
2022-09-27T04:41:03.835Z,956.99
2022-09-27T04:42:03.716Z,957.05
2022-09-27T04:43:03.577Z,956.82
2022-09-27T04:44:03.628Z,956.90
2022-09-27T04:45:03.720Z,956.91
2022-09-27T04:46:03.850Z,956.99
2022-09-27T04:47:03.919Z,956.96
2022-09-27T04:48:03.789Z,956.88
2022-09-27T04:49:03.796Z,956.65
2022-09-27T04:50:03.818Z,956.88
2022-09-27T04:51:03.864Z,956.79
2022-09-27T04:52:03.862Z,956.82
2022-09-27T04:53:02.910Z,956.82
2022-09-27T04:54:03.088Z,956.79
2022-09-27T04:55:03.009Z,956.84
2022-09-27T04:56:02.957Z,956.76
2022-09-27T04:57:03.029Z,956.82
2022-09-27T04:58:03.115Z,956.87
2022-09-27T04:59:10.657Z,956.79
2022-09-27T05:00:03.216Z,956.87
2022-09-27T05:01:03.248Z,956.93
2022-09-27T05:02:03.417Z,956.93
2022-09-27T05:03:03.394Z,956.79
2022-09-27T05:04:03.329Z,956.79
2022-09-27T05:05:03.348Z,956.87
2022-09-27T05:06:03.370Z,956.96
2022-09-27T05:07:03.424Z,956.90
2022-09-27T05:08:03.519Z,956.79
2022-09-27T05:09:03.502Z,956.90
2022-09-27T05:10:03.546Z,956.84
2022-09-27T05:11:03.493Z,956.87
2022-09-27T05:12:03.426Z,956.82
2022-09-27T05:13:03.546Z,956.87
2022-09-27T05:14:02.896Z,956.96
2022-09-27T05:15:03.934Z,956.90
2022-09-27T05:16:03.845Z,956.93
2022-09-27T05:17:03.811Z,957.02
2022-09-27T05:18:03.777Z,956.96
2022-09-27T05:19:03.716Z,956.99
2022-09-27T05:20:03.773Z,956.99
2022-09-27T05:21:03.911Z,957.07
2022-09-27T05:22:03.792Z,956.79
2022-09-27T05:23:03.807Z,956.93
2022-09-27T05:24:03.695Z,956.96
2022-09-27T05:25:03.756Z,957.02
2022-09-27T05:26:02.950Z,956.96
2022-09-27T05:27:02.997Z,956.73
2022-09-27T05:28:03.038Z,957.07
2022-09-27T05:29:03.133Z,956.90
2022-09-27T05:30:03.144Z,956.82
2022-09-27T05:31:03.312Z,956.85
2022-09-27T05:32:03.289Z,957.07
2022-09-27T05:33:03.320Z,956.99
2022-09-27T05:34:03.512Z,956.99
2022-09-27T05:35:03.399Z,956.93
2022-09-27T05:36:03.585Z,957.02
2022-09-27T05:37:03.616Z,956.93
2022-09-27T05:38:03.527Z,956.82
2022-09-27T05:39:03.655Z,956.90
2022-09-27T05:40:40.026Z,956.96
2022-09-27T05:41:03.919Z,956.90
2022-09-27T05:42:02.979Z,956.87
2022-09-27T05:43:03.944Z,956.99
2022-09-27T05:44:03.888Z,956.99
2022-09-27T05:45:02.927Z,956.85
2022-09-27T05:46:03.323Z,956.90
2022-09-27T05:47:03.243Z,956.85
2022-09-27T05:48:03.260Z,956.85
2022-09-27T05:49:03.293Z,956.90
2022-09-27T05:50:03.292Z,957.02
2022-09-27T05:51:03.440Z,956.90
2022-09-27T05:52:03.314Z,956.96
2022-09-27T05:53:02.964Z,956.88
2022-09-27T05:54:02.948Z,957.02
2022-09-27T05:55:02.974Z,956.93
2022-09-27T05:56:03.146Z,956.91
2022-09-27T05:57:02.992Z,957.10
2022-09-27T05:58:03.038Z,956.90
2022-09-27T05:59:03.290Z,957.07
2022-09-27T06:00:03.303Z,956.82
2022-09-27T06:01:03.295Z,956.88
2022-09-27T06:02:03.992Z,957.01
2022-09-27T06:03:03.843Z,957.07
2022-09-27T06:04:03.069Z,957.04
2022-09-27T06:05:03.234Z,957.01
2022-09-27T06:06:03.326Z,957.07
2022-09-27T06:07:03.121Z,957.04
2022-09-27T06:08:03.081Z,956.92
2022-09-27T06:09:03.097Z,956.98
2022-09-27T06:10:03.818Z,956.98
2022-09-27T06:11:03.894Z,957.03
2022-09-27T06:12:03.886Z,957.03
2022-09-27T06:13:03.826Z,957.09
2022-09-27T06:14:03.787Z,957.09
2022-09-27T06:15:03.776Z,957.06
2022-09-27T06:16:03.754Z,957.11
2022-09-27T06:17:04.430Z,957.08
2022-09-27T06:18:03.003Z,957.18
2022-09-27T06:19:02.983Z,957.18
2022-09-27T06:20:03.085Z,957.11
2022-09-27T06:21:03.092Z,957.15
2022-09-27T06:22:03.264Z,957.18
2022-09-27T06:23:03.170Z,957.15
2022-09-27T06:24:03.175Z,957.15
2022-09-27T06:25:03.279Z,957.07
2022-09-27T06:26:03.292Z,957.26
2022-09-27T06:27:03.286Z,956.99
2022-09-27T06:28:03.296Z,957.15
2022-09-27T06:29:03.361Z,957.21
2022-09-27T06:30:03.325Z,957.07
2022-09-27T06:31:03.747Z,957.18
2022-09-27T06:32:03.501Z,957.04
2022-09-27T06:33:03.584Z,957.04
2022-09-27T06:34:03.618Z,957.14
2022-09-27T06:35:03.595Z,957.14
2022-09-27T06:36:03.697Z,957.23
2022-09-27T06:37:03.592Z,957.20
2022-09-27T06:38:03.718Z,957.14
2022-09-27T06:39:03.823Z,957.10
2022-09-27T06:40:03.920Z,957.20
2022-09-27T06:41:03.800Z,957.09
2022-09-27T06:42:03.853Z,957.26
2022-09-27T06:43:03.848Z,957.37
2022-09-27T06:44:02.924Z,957.26
2022-09-27T06:45:02.958Z,957.31
2022-09-27T06:46:03.011Z,957.22
2022-09-27T06:47:02.904Z,957.28
2022-09-27T06:48:03.912Z,957.22
2022-09-27T06:49:03.069Z,957.37
2022-09-27T06:50:03.933Z,957.25
2022-09-27T06:51:03.860Z,957.39
2022-09-27T06:52:02.934Z,957.42
2022-09-27T06:53:03.032Z,957.51
2022-09-27T06:54:03.057Z,957.48
2022-09-27T06:55:03.066Z,957.31
2022-09-27T06:56:03.231Z,957.34
2022-09-27T06:57:03.265Z,957.32
2022-09-27T06:58:03.469Z,957.34
2022-09-27T06:59:03.363Z,957.40
2022-09-27T07:00:03.382Z,957.43
2022-09-27T07:01:03.656Z,957.32
2022-09-27T07:02:03.638Z,957.43
2022-09-27T07:03:03.501Z,957.34
2022-09-27T07:04:03.609Z,957.51
2022-09-27T07:05:03.708Z,957.40
2022-09-27T07:06:03.833Z,957.43
2022-09-27T07:07:03.846Z,957.49
2022-09-27T07:08:02.931Z,957.40
2022-09-27T07:09:02.940Z,957.46
2022-09-27T07:10:10.075Z,957.49
2022-09-27T07:11:03.022Z,957.52
2022-09-27T07:12:03.141Z,957.52
2022-09-27T07:13:03.187Z,957.63
2022-09-27T07:14:03.197Z,957.54
2022-09-27T07:15:03.157Z,957.63
2022-09-27T07:16:03.646Z,957.63
2022-09-27T07:17:03.418Z,957.65
2022-09-27T07:18:03.428Z,957.65
2022-09-27T07:19:03.366Z,957.60
2022-09-27T07:20:03.424Z,957.60
2022-09-27T07:21:03.349Z,957.71
2022-09-27T07:22:03.380Z,957.65
2022-09-27T07:23:03.391Z,957.76
2022-09-27T07:24:03.359Z,957.76
2022-09-27T07:25:03.308Z,957.81
2022-09-27T07:26:03.382Z,957.76
2022-09-27T07:27:03.369Z,957.87
2022-09-27T07:28:03.391Z,957.84
2022-09-27T07:29:03.307Z,957.87
2022-09-27T07:30:03.341Z,957.93
2022-09-27T07:31:03.391Z,957.79
2022-09-27T07:32:03.372Z,957.90
2022-09-27T07:33:03.462Z,957.90
2022-09-27T07:34:03.496Z,958.07
2022-09-27T07:35:03.474Z,957.99
2022-09-27T07:36:03.639Z,957.99
2022-09-27T07:37:03.543Z,957.96
2022-09-27T07:38:03.589Z,957.93
2022-09-27T07:39:03.670Z,958.02
2022-09-27T07:40:03.586Z,958.05
2022-09-27T07:41:03.691Z,958.02
2022-09-27T07:42:03.697Z,958.14
2022-09-27T07:43:03.711Z,958.05
2022-09-27T07:44:03.775Z,958.17
2022-09-27T07:45:09.216Z,958.20
2022-09-27T07:46:03.958Z,958.09
2022-09-27T07:47:03.737Z,958.03
2022-09-27T07:48:03.733Z,958.26
2022-09-27T07:49:03.690Z,958.20
2022-09-27T07:50:03.714Z,958.35
2022-09-27T07:51:03.825Z,958.32
2022-09-27T07:52:02.874Z,958.32
2022-09-27T07:53:02.995Z,958.26
2022-09-27T07:54:08.975Z,958.18
2022-09-27T07:55:03.147Z,958.35
2022-09-27T07:56:03.154Z,958.35
2022-09-27T07:57:03.177Z,958.27
2022-09-27T07:58:03.121Z,958.44
2022-09-27T07:59:03.291Z,958.38
2022-09-27T08:00:03.253Z,958.38
2022-09-27T08:01:03.392Z,958.35
2022-09-27T08:02:03.327Z,958.27
2022-09-27T08:03:03.271Z,958.32
2022-09-27T08:04:03.246Z,958.35
2022-09-27T08:05:03.240Z,958.38
2022-09-27T08:06:03.371Z,958.38
2022-09-27T08:07:03.303Z,958.44
2022-09-27T08:08:03.408Z,958.38
2022-09-27T08:09:03.437Z,958.38
2022-09-27T08:10:03.366Z,958.36
2022-09-27T08:11:03.314Z,958.44
2022-09-27T08:12:03.618Z,958.42
2022-09-27T08:13:03.904Z,958.42
2022-09-27T08:14:03.576Z,958.48
2022-09-27T08:15:03.606Z,958.50
2022-09-27T08:16:04.061Z,958.50
2022-09-27T08:17:03.833Z,958.39
2022-09-27T08:18:03.800Z,958.53
2022-09-27T08:19:03.858Z,958.53
2022-09-27T08:20:03.815Z,958.59
2022-09-27T08:21:03.845Z,958.56
2022-09-27T08:22:03.912Z,958.50
2022-09-27T08:23:03.884Z,958.61
2022-09-27T08:24:03.866Z,958.55
2022-09-27T08:25:03.796Z,958.69
2022-09-27T08:26:02.920Z,958.66
2022-09-27T08:27:02.913Z,958.72
2022-09-27T08:28:03.038Z,958.66
2022-09-27T08:29:03.066Z,958.60
2022-09-27T08:30:03.013Z,958.66
2022-09-27T08:31:03.150Z,958.71
2022-09-27T08:32:03.967Z,958.74
2022-09-27T08:33:03.899Z,958.77
2022-09-27T08:34:02.929Z,958.77
2022-09-27T08:35:02.975Z,958.82
2022-09-27T08:36:03.002Z,958.71
2022-09-27T08:37:03.057Z,958.68
2022-09-27T08:38:03.740Z,958.82
2022-09-27T08:39:03.870Z,958.71
2022-09-27T08:40:03.830Z,958.85
2022-09-27T08:41:02.902Z,958.82
2022-09-27T08:42:02.917Z,958.80
2022-09-27T08:43:02.945Z,958.85
2022-09-27T08:44:03.367Z,958.94
2022-09-27T08:45:04.148Z,958.74
2022-09-27T08:46:03.470Z,958.83
2022-09-27T08:47:03.429Z,958.91
2022-09-27T08:48:03.423Z,958.85
2022-09-27T08:49:03.385Z,959.02
2022-09-27T08:50:03.338Z,958.94
2022-09-27T08:51:03.543Z,958.99
2022-09-27T08:52:03.525Z,958.96
2022-09-27T08:53:03.748Z,958.99
2022-09-27T08:54:03.797Z,958.90
2022-09-27T08:55:03.791Z,958.84
2022-09-27T08:56:03.742Z,958.90
2022-09-27T08:57:03.760Z,958.90
2022-09-27T08:58:04.187Z,959.01
2022-09-27T08:59:03.660Z,959.03
2022-09-27T09:00:03.756Z,958.97
2022-09-27T09:01:04.019Z,959.06
2022-09-27T09:02:03.983Z,959.03
2022-09-27T09:03:03.734Z,959.03
2022-09-27T09:04:03.908Z,959.05
2022-09-27T09:05:03.909Z,958.97
2022-09-27T09:06:03.933Z,959.13
2022-09-27T09:07:03.139Z,958.96
2022-09-27T09:08:03.112Z,959.07
2022-09-27T09:09:03.192Z,959.01
2022-09-27T09:10:03.162Z,958.96
2022-09-27T09:11:03.197Z,959.04
2022-09-27T09:12:03.256Z,958.95
2022-09-27T09:13:03.304Z,959.04
2022-09-27T09:14:03.348Z,959.01
2022-09-27T09:15:03.238Z,959.09
2022-09-27T09:16:03.483Z,959.03
2022-09-27T09:17:03.471Z,959.08
2022-09-27T09:18:03.402Z,959.08
2022-09-27T09:19:03.423Z,959.08
2022-09-27T09:20:03.447Z,959.08
2022-09-27T09:21:03.499Z,959.08
2022-09-27T09:22:03.578Z,959.16
2022-09-27T09:23:03.629Z,959.18
2022-09-27T09:24:03.495Z,959.07
2022-09-27T09:25:03.652Z,959.21
2022-09-27T09:26:03.653Z,959.16
2022-09-27T09:27:03.667Z,959.20
2022-09-27T09:28:03.226Z,959.23
2022-09-27T09:29:03.382Z,959.29
2022-09-27T09:30:03.214Z,959.41
2022-09-27T09:31:03.152Z,959.29
2022-09-27T09:32:03.456Z,959.27
2022-09-27T09:33:03.259Z,959.21
2022-09-27T09:34:03.297Z,959.42
2022-09-27T09:35:03.354Z,959.36
2022-09-27T09:36:03.451Z,959.36
2022-09-27T09:37:03.397Z,959.51
2022-09-27T09:38:03.332Z,959.46
2022-09-27T09:39:03.457Z,959.52
2022-09-27T09:40:09.429Z,959.49
2022-09-27T09:41:03.623Z,959.52
2022-09-27T09:42:03.360Z,959.61
2022-09-27T09:43:03.418Z,959.56
2022-09-27T09:44:03.414Z,959.62
2022-09-27T09:45:03.515Z,959.65
2022-09-27T09:46:03.829Z,959.62
2022-09-27T09:47:03.690Z,959.73
2022-09-27T09:48:03.750Z,959.54
2022-09-27T09:49:03.856Z,959.55
2022-09-27T09:50:03.023Z,959.55
2022-09-27T09:51:02.950Z,959.63
2022-09-27T09:52:09.294Z,959.58
2022-09-27T09:53:03.380Z,959.47
2022-09-27T09:54:03.352Z,959.61
2022-09-27T09:55:03.382Z,959.61
2022-09-27T09:56:03.526Z,959.64
2022-09-27T09:57:03.438Z,959.59
2022-09-27T09:58:03.565Z,959.64
2022-09-27T09:59:03.619Z,959.67
2022-09-27T10:00:03.675Z,959.72
2022-09-27T10:01:03.873Z,959.67
2022-09-27T10:02:03.787Z,959.64
2022-09-27T10:03:03.728Z,959.78
2022-09-27T10:04:03.699Z,959.59
2022-09-27T10:05:08.319Z,959.56
2022-09-27T10:06:03.751Z,959.78
2022-09-27T10:07:03.674Z,959.64
2022-09-27T10:08:03.782Z,959.67
2022-09-27T10:09:03.742Z,959.61
2022-09-27T10:10:03.809Z,959.81
2022-09-27T10:11:03.731Z,959.56
2022-09-27T10:12:03.806Z,959.64
2022-09-27T10:13:03.823Z,959.75
2022-09-27T10:14:02.937Z,959.78
2022-09-27T10:15:03.203Z,959.75
2022-09-27T10:16:03.181Z,959.67
2022-09-27T10:17:03.087Z,959.78
2022-09-27T10:18:03.123Z,959.75
2022-09-27T10:19:03.218Z,959.62
2022-09-27T10:20:03.282Z,959.75
2022-09-27T10:21:03.301Z,959.53
2022-09-27T10:22:03.390Z,959.78
2022-09-27T10:23:03.407Z,959.67
2022-09-27T10:24:03.439Z,959.83
2022-09-27T10:25:03.604Z,959.71
2022-09-27T10:26:03.733Z,959.66
2022-09-27T10:27:03.747Z,959.85
2022-09-27T10:28:03.802Z,959.71
2022-09-27T10:29:03.832Z,959.73
2022-09-27T10:30:03.915Z,959.76
2022-09-27T10:31:03.877Z,959.75
2022-09-27T10:32:02.933Z,959.72
2022-09-27T10:33:03.047Z,959.67
2022-09-27T10:34:03.070Z,959.47
2022-09-27T10:35:03.214Z,959.60
2022-09-27T10:36:03.199Z,959.51
2022-09-27T10:37:03.198Z,959.57
2022-09-27T10:38:03.228Z,959.65
2022-09-27T10:39:03.197Z,959.67
2022-09-27T10:40:03.296Z,959.50
2022-09-27T10:41:03.312Z,959.55
2022-09-27T10:42:03.421Z,959.63
2022-09-27T10:43:03.368Z,959.65
2022-09-27T10:44:03.391Z,959.47
2022-09-27T10:45:03.438Z,959.41
2022-09-27T10:46:03.501Z,959.55
2022-09-27T10:47:03.444Z,959.57
2022-09-27T10:48:03.496Z,959.57
2022-09-27T10:49:03.624Z,959.48
2022-09-27T10:50:02.968Z,959.47
2022-09-27T10:51:03.036Z,959.44
2022-09-27T10:52:03.588Z,959.63
2022-09-27T10:53:03.668Z,959.52
2022-09-27T10:54:03.775Z,959.66
2022-09-27T10:55:03.811Z,959.45
2022-09-27T10:56:03.890Z,959.57
2022-09-27T10:57:02.952Z,959.62
2022-09-27T10:58:02.956Z,959.65
2022-09-27T10:59:03.898Z,959.56
2022-09-27T11:00:03.822Z,959.72
2022-09-27T11:01:03.103Z,959.78
2022-09-27T11:02:02.930Z,959.70
2022-09-27T11:03:03.075Z,959.75
2022-09-27T11:04:03.111Z,959.84
2022-09-27T11:05:03.812Z,959.79
2022-09-27T11:06:03.550Z,959.77
2022-09-27T11:07:03.690Z,959.86
2022-09-27T11:08:03.819Z,959.94
2022-09-27T11:09:03.724Z,959.92
2022-09-27T11:10:03.808Z,959.93
2022-09-27T11:11:03.828Z,959.96
2022-09-27T11:12:03.916Z,960.05
2022-09-27T11:13:03.927Z,960.14
2022-09-27T11:14:02.919Z,960.17
2022-09-27T11:15:03.054Z,960.03
2022-09-27T11:16:03.229Z,960.18
2022-09-27T11:17:03.065Z,959.95
2022-09-27T11:18:03.202Z,960.18
2022-09-27T11:19:03.333Z,960.06
2022-09-27T11:20:03.088Z,960.15
2022-09-27T11:21:03.217Z,960.12
2022-09-27T11:22:03.202Z,960.00
2022-09-27T11:23:03.167Z,959.97
2022-09-27T11:24:03.220Z,959.96
2022-09-27T11:25:03.224Z,959.90
2022-09-27T11:26:03.210Z,959.89
2022-09-27T11:27:03.268Z,959.80
2022-09-27T11:28:03.413Z,960.11
2022-09-27T11:29:03.465Z,959.80
2022-09-27T11:30:03.288Z,959.91
2022-09-27T11:31:03.410Z,959.85
2022-09-27T11:32:03.602Z,959.88
2022-09-27T11:33:03.480Z,959.88
2022-09-27T11:34:03.571Z,959.84
2022-09-27T11:35:03.520Z,959.79
2022-09-27T11:36:03.605Z,959.84
2022-09-27T11:37:03.538Z,959.84
2022-09-27T11:38:03.493Z,959.89
2022-09-27T11:39:03.488Z,959.89
2022-09-27T11:40:03.483Z,959.95
2022-09-27T11:41:03.425Z,959.92
2022-09-27T11:42:03.510Z,959.61
2022-09-27T11:43:03.538Z,959.80
2022-09-27T11:44:03.539Z,959.71
2022-09-27T11:45:45.685Z,959.82
2022-09-27T11:46:22.384Z,959.85
2022-09-27T11:47:03.309Z,959.85
2022-09-27T11:48:03.240Z,959.76
2022-09-27T11:49:03.218Z,959.87
2022-09-27T11:50:03.337Z,959.78
2022-09-27T11:51:03.366Z,959.78
2022-09-27T11:52:03.341Z,959.84
2022-09-27T11:53:03.448Z,959.89
2022-09-27T11:54:03.386Z,959.61
2022-09-27T11:55:03.528Z,959.92
2022-09-27T11:56:03.494Z,959.95
2022-09-27T11:57:03.521Z,959.89
2022-09-27T11:58:03.558Z,959.92
2022-09-27T11:59:03.597Z,960.01
2022-09-27T12:00:03.669Z,959.98
2022-09-27T12:01:03.607Z,960.06
2022-09-27T12:02:03.979Z,959.95
2022-09-27T12:03:03.814Z,960.06
2022-09-27T12:04:03.693Z,960.00
2022-09-27T12:05:03.301Z,960.17
2022-09-27T12:06:08.032Z,959.97
2022-09-27T12:07:03.623Z,960.06
2022-09-27T12:08:03.527Z,960.11
2022-09-27T12:09:03.524Z,960.05
2022-09-27T12:10:03.565Z,960.16
2022-09-27T12:11:03.642Z,960.05
2022-09-27T12:12:03.709Z,960.16
2022-09-27T12:13:03.838Z,960.19
2022-09-27T12:14:03.971Z,960.13
2022-09-27T12:15:07.421Z,960.07
2022-09-27T12:16:03.123Z,960.19
2022-09-27T12:17:03.206Z,960.24
2022-09-27T12:18:03.152Z,960.18
2022-09-27T12:19:03.167Z,960.24
2022-09-27T12:20:03.211Z,960.41
2022-09-27T12:21:03.285Z,960.21
2022-09-27T12:22:03.210Z,960.27
2022-09-27T12:23:03.294Z,960.36
2022-09-27T12:24:03.360Z,960.41
2022-09-27T12:25:03.377Z,960.50
2022-09-27T12:26:03.390Z,960.47
2022-09-27T12:27:03.430Z,960.44
2022-09-27T12:28:03.358Z,960.44
2022-09-27T12:29:03.357Z,960.32